createdAt,value
2022-10-06T00:00:04.932Z,4.00
2022-10-06T00:01:04.999Z,2.70
2022-10-06T00:02:04.963Z,3.30
2022-10-06T00:03:04.876Z,3.20
2022-10-06T00:04:04.874Z,2.90
2022-10-06T00:05:04.893Z,2.50
2022-10-06T00:06:04.881Z,3.50
2022-10-06T00:07:04.940Z,2.70
2022-10-06T00:08:04.843Z,1.70
2022-10-06T00:09:04.834Z,1.70
2022-10-06T00:10:04.805Z,2.70
2022-10-06T00:11:04.845Z,4.00
2022-10-06T00:12:04.749Z,4.10
2022-10-06T00:13:04.788Z,3.20
2022-10-06T00:14:04.729Z,3.40
2022-10-06T00:15:04.812Z,2.10
2022-10-06T00:16:04.781Z,5.30
2022-10-06T00:17:04.702Z,1.90
2022-10-06T00:18:04.707Z,4.70
2022-10-06T00:19:04.713Z,3.50
2022-10-06T00:20:04.783Z,4.80
2022-10-06T00:21:04.679Z,2.50
2022-10-06T00:22:04.713Z,3.70
2022-10-06T00:23:04.659Z,1.80
2022-10-06T00:24:04.617Z,1.40
2022-10-06T00:25:04.578Z,3.80
2022-10-06T00:26:04.576Z,2.60
2022-10-06T00:27:04.567Z,1.50
2022-10-06T00:28:04.798Z,5.50
2022-10-06T00:29:04.807Z,2.10
2022-10-06T00:30:04.524Z,3.80
2022-10-06T00:31:04.537Z,1.80
2022-10-06T00:32:04.548Z,7.30
2022-10-06T00:33:04.551Z,4.00
2022-10-06T00:34:04.554Z,1.90
2022-10-06T00:35:04.464Z,1.50
2022-10-06T00:36:04.482Z,3.20
2022-10-06T00:37:04.445Z,3.20
2022-10-06T00:38:04.422Z,2.40
2022-10-06T00:39:04.407Z,4.30
2022-10-06T00:40:04.387Z,4.70
2022-10-06T00:41:04.462Z,1.90
2022-10-06T00:42:04.352Z,2.20
2022-10-06T00:43:04.376Z,3.10
2022-10-06T00:44:04.339Z,2.90
2022-10-06T00:45:04.336Z,3.10
2022-10-06T00:46:04.371Z,3.80
2022-10-06T00:47:04.333Z,2.20
2022-10-06T00:48:04.308Z,4.90
2022-10-06T00:49:04.262Z,3.40
2022-10-06T00:50:04.250Z,2.40
2022-10-06T00:51:04.243Z,5.20
2022-10-06T00:52:04.329Z,3.60
2022-10-06T00:53:04.259Z,3.90
2022-10-06T00:54:04.191Z,4.50
2022-10-06T00:55:04.239Z,2.60
2022-10-06T00:56:04.161Z,3.10
2022-10-06T00:57:04.212Z,4.60
2022-10-06T00:58:04.137Z,4.00
2022-10-06T00:59:04.128Z,3.30
2022-10-06T01:00:04.105Z,3.70
2022-10-06T01:01:04.184Z,3.40
2022-10-06T01:02:04.082Z,2.60
2022-10-06T01:03:04.122Z,4.10
2022-10-06T01:04:04.077Z,1.70
2022-10-06T01:05:04.058Z,4.40
2022-10-06T01:06:04.038Z,4.10
2022-10-06T01:07:04.026Z,7.40
2022-10-06T01:08:04.041Z,5.40
2022-10-06T01:09:04.043Z,3.60
2022-10-06T01:10:03.962Z,3.50
2022-10-06T01:11:03.960Z,4.60
2022-10-06T01:12:03.979Z,4.70
2022-10-06T01:13:03.961Z,4.80
2022-10-06T01:14:03.945Z,5.20
2022-10-06T01:15:03.958Z,5.70
2022-10-06T01:16:03.943Z,6.10
2022-10-06T01:17:03.945Z,7.20
2022-10-06T01:18:03.869Z,5.50
2022-10-06T01:19:03.879Z,6.30
2022-10-06T01:20:03.880Z,5.90
2022-10-06T01:21:03.907Z,6.10
2022-10-06T01:22:03.845Z,3.10
2022-10-06T01:23:03.840Z,2.40
2022-10-06T01:24:03.793Z,1.80
2022-10-06T01:25:03.786Z,3.90
2022-10-06T01:26:03.772Z,5.80
2022-10-06T01:27:03.753Z,4.20
2022-10-06T01:28:03.767Z,9.50
2022-10-06T01:29:03.722Z,7.30
2022-10-06T01:30:03.704Z,6.60
2022-10-06T01:31:03.755Z,5.80
2022-10-06T01:32:03.683Z,6.70
2022-10-06T01:33:03.670Z,3.10
2022-10-06T01:34:03.676Z,4.40
2022-10-06T01:35:04.029Z,4.30
2022-10-06T01:36:03.641Z,5.00
2022-10-06T01:37:03.635Z,4.60
2022-10-06T01:38:03.629Z,6.50
2022-10-06T01:39:03.621Z,4.70
2022-10-06T01:40:03.572Z,4.80
2022-10-06T01:41:03.579Z,10.50
2022-10-06T01:42:03.568Z,5.70
2022-10-06T01:43:03.553Z,5.10
2022-10-06T01:44:03.516Z,5.60
2022-10-06T01:45:03.535Z,5.20
2022-10-06T01:46:03.524Z,6.00
2022-10-06T01:47:03.500Z,5.80
2022-10-06T01:48:03.469Z,10.10
2022-10-06T01:49:03.461Z,2.70
2022-10-06T01:50:03.447Z,6.40
2022-10-06T01:51:03.455Z,2.90
2022-10-06T01:52:03.422Z,4.50
2022-10-06T01:53:03.421Z,6.00
2022-10-06T01:54:03.416Z,5.30
2022-10-06T01:55:03.378Z,5.90
2022-10-06T01:56:04.524Z,6.10
2022-10-06T01:57:03.394Z,7.80
2022-10-06T01:58:03.330Z,4.70
2022-10-06T01:59:03.349Z,8.80
2022-10-06T02:00:03.297Z,12.50
2022-10-06T02:01:03.308Z,7.60
2022-10-06T02:02:03.395Z,8.40
2022-10-06T02:03:03.273Z,3.50
2022-10-06T02:04:03.303Z,2.50
2022-10-06T02:05:03.265Z,5.00
2022-10-06T02:06:03.346Z,5.40
2022-10-06T02:07:03.265Z,5.70
2022-10-06T02:08:03.214Z,8.00
2022-10-06T02:09:03.292Z,6.20
2022-10-06T02:10:03.167Z,4.80
2022-10-06T02:11:03.158Z,9.30
2022-10-06T02:12:03.240Z,9.50
2022-10-06T02:13:03.149Z,8.10
2022-10-06T02:14:03.110Z,4.90
2022-10-06T02:15:03.237Z,7.90
2022-10-06T02:16:03.149Z,5.90
2022-10-06T02:17:03.138Z,12.10
2022-10-06T02:18:03.482Z,8.90
2022-10-06T02:19:03.081Z,8.30
2022-10-06T02:20:03.168Z,8.70
2022-10-06T02:21:03.055Z,7.20
2022-10-06T02:22:03.062Z,9.70
2022-10-06T02:23:02.982Z,8.60
2022-10-06T02:24:03.007Z,5.20
2022-10-06T02:25:03.041Z,8.20
2022-10-06T02:26:02.956Z,12.70
2022-10-06T02:27:02.946Z,11.00
2022-10-06T02:28:02.981Z,5.20
2022-10-06T02:29:02.921Z,9.00
2022-10-06T02:30:03.018Z,5.70
2022-10-06T02:31:02.962Z,6.10
2022-10-06T02:32:02.957Z,6.70
2022-10-06T02:33:02.856Z,4.10
2022-10-06T02:34:02.852Z,9.10
2022-10-06T02:35:02.857Z,7.90
2022-10-06T02:36:02.865Z,7.10
2022-10-06T02:37:02.908Z,11.00
2022-10-06T02:38:02.891Z,9.40
2022-10-06T02:39:02.771Z,4.00
2022-10-06T02:40:02.791Z,9.10
2022-10-06T02:41:02.821Z,6.50
2022-10-06T02:42:02.814Z,9.90
2022-10-06T02:43:02.712Z,8.60
2022-10-06T02:44:02.733Z,7.30
2022-10-06T02:45:02.740Z,5.80
2022-10-06T02:46:02.773Z,13.70
2022-10-06T02:47:02.647Z,9.60
2022-10-06T02:48:02.659Z,10.90
2022-10-06T02:49:02.640Z,11.10
2022-10-06T02:50:02.632Z,4.90
2022-10-06T02:51:02.652Z,7.10
2022-10-06T02:52:02.595Z,8.30
2022-10-06T02:53:02.665Z,6.70
2022-10-06T02:54:02.573Z,8.20
2022-10-06T02:55:02.573Z,5.80
2022-10-06T02:56:02.609Z,10.40
2022-10-06T02:57:02.509Z,8.60
2022-10-06T02:58:02.526Z,9.50
2022-10-06T02:59:02.522Z,6.70
2022-10-06T03:00:02.525Z,11.00
2022-10-06T03:01:02.501Z,7.00
2022-10-06T03:02:02.594Z,6.80
2022-10-06T03:03:02.505Z,8.50
2022-10-06T03:04:02.551Z,15.20
2022-10-06T03:05:02.406Z,13.60
2022-10-06T03:06:02.386Z,6.60
2022-10-06T03:07:02.403Z,10.10
2022-10-06T03:08:02.347Z,13.10
2022-10-06T03:09:02.347Z,6.30
2022-10-06T03:10:02.350Z,13.50
2022-10-06T03:11:02.357Z,10.80
2022-10-06T03:12:02.295Z,8.30
2022-10-06T03:13:02.313Z,7.70
2022-10-06T03:14:02.292Z,9.40
2022-10-06T03:15:02.289Z,7.80
2022-10-06T03:16:02.318Z,10.80
2022-10-06T03:17:02.307Z,9.60
2022-10-06T03:18:02.267Z,5.70
2022-10-06T03:19:02.254Z,9.60
2022-10-06T03:20:02.219Z,11.30
2022-10-06T03:21:02.203Z,11.10
2022-10-06T03:22:02.272Z,7.80
2022-10-06T03:23:02.168Z,10.30
2022-10-06T03:24:02.177Z,12.40
2022-10-06T03:25:02.186Z,11.20
2022-10-06T03:26:02.120Z,9.00
2022-10-06T03:27:02.125Z,10.40
2022-10-06T03:28:02.110Z,14.20
2022-10-06T03:29:02.079Z,10.70
2022-10-06T03:30:02.096Z,5.10
2022-10-06T03:31:03.329Z,8.20
2022-10-06T03:32:02.060Z,12.40
2022-10-06T03:33:02.031Z,9.70
2022-10-06T03:34:02.006Z,8.80
2022-10-06T03:35:02.021Z,7.50
2022-10-06T03:36:01.998Z,8.70
2022-10-06T03:37:02.005Z,12.40
2022-10-06T03:38:00.951Z,8.20
2022-10-06T03:39:01.987Z,9.30
2022-10-06T03:40:01.927Z,11.00
2022-10-06T03:41:02.099Z,16.50
2022-10-06T03:42:01.919Z,7.00
2022-10-06T03:43:01.977Z,9.30
2022-10-06T03:44:02.174Z,10.10
2022-10-06T03:45:01.927Z,9.20
2022-10-06T03:46:01.859Z,7.50
2022-10-06T03:47:01.888Z,11.10
2022-10-06T03:48:01.831Z,11.90
2022-10-06T03:49:01.816Z,13.00
2022-10-06T03:50:01.806Z,12.50
2022-10-06T03:51:01.794Z,14.90
2022-10-06T03:52:01.779Z,14.50
2022-10-06T03:53:01.760Z,11.20
2022-10-06T03:54:01.796Z,8.70
2022-10-06T03:55:01.743Z,9.20
2022-10-06T03:56:01.748Z,7.70
2022-10-06T03:57:01.704Z,13.80
2022-10-06T03:58:01.704Z,11.00
2022-10-06T03:59:01.683Z,10.10
2022-10-06T04:00:01.675Z,11.00
2022-10-06T04:01:01.703Z,10.80
2022-10-06T04:02:01.746Z,8.90
2022-10-06T04:03:01.663Z,13.10
2022-10-06T04:04:01.617Z,14.60
2022-10-06T04:05:01.703Z,11.30
2022-10-06T04:06:01.577Z,9.90
2022-10-06T04:07:01.585Z,14.70
2022-10-06T04:08:01.578Z,9.40
2022-10-06T04:09:01.559Z,7.80
2022-10-06T04:10:01.535Z,13.40
2022-10-06T04:11:01.547Z,16.50
2022-10-06T04:12:01.591Z,10.70
2022-10-06T04:13:01.503Z,10.30
2022-10-06T04:14:01.777Z,12.90
2022-10-06T04:15:01.549Z,16.40
2022-10-06T04:16:01.509Z,14.20
2022-10-06T04:17:01.505Z,8.60
2022-10-06T04:18:01.460Z,14.20
2022-10-06T04:19:01.437Z,12.30
2022-10-06T04:20:01.444Z,13.10
2022-10-06T04:21:01.436Z,13.20
2022-10-06T04:22:01.435Z,9.20
2022-10-06T04:23:01.378Z,13.20
2022-10-06T04:24:02.295Z,10.40
2022-10-06T04:25:01.351Z,10.00
2022-10-06T04:26:02.612Z,8.40
2022-10-06T04:27:01.319Z,11.30
2022-10-06T04:28:01.339Z,13.10
2022-10-06T04:29:01.277Z,8.90
2022-10-06T04:30:01.298Z,12.20
2022-10-06T04:31:01.289Z,8.80
2022-10-06T04:32:01.291Z,15.30
2022-10-06T04:33:01.255Z,9.60
2022-10-06T04:34:09.079Z,12.80
2022-10-06T04:35:01.252Z,11.40
2022-10-06T04:36:22.262Z,10.70
2022-10-06T04:37:01.190Z,12.30
2022-10-06T04:38:01.212Z,18.60
2022-10-06T04:39:01.180Z,10.10
2022-10-06T04:40:01.154Z,13.90
2022-10-06T04:41:01.139Z,13.20
2022-10-06T04:42:01.147Z,10.60
2022-10-06T04:43:01.094Z,10.40
2022-10-06T04:44:01.191Z,13.50
2022-10-06T04:45:01.085Z,9.60
2022-10-06T04:46:13.103Z,15.30
2022-10-06T04:47:01.127Z,10.30
2022-10-06T04:48:01.052Z,10.20
2022-10-06T04:49:01.065Z,18.30
2022-10-06T04:50:01.018Z,12.90
2022-10-06T04:51:01.028Z,9.40
2022-10-06T04:51:59.996Z,11.40
2022-10-06T04:53:01.029Z,12.10
2022-10-06T04:54:00.963Z,14.60
2022-10-06T04:55:00.947Z,14.20
2022-10-06T04:56:00.960Z,10.50
2022-10-06T04:57:00.977Z,8.40
2022-10-06T04:58:00.913Z,9.80
2022-10-06T04:59:00.967Z,9.50
2022-10-06T05:00:06.149Z,11.60
2022-10-06T05:01:01.053Z,10.40
2022-10-06T05:02:00.965Z,13.60
2022-10-06T05:03:00.880Z,15.30
2022-10-06T05:04:00.906Z,10.90
2022-10-06T05:05:00.865Z,12.10
2022-10-06T05:06:00.843Z,10.00
2022-10-06T05:07:00.811Z,16.80
2022-10-06T05:08:00.822Z,15.10
2022-10-06T05:09:00.826Z,9.60
2022-10-06T05:10:00.766Z,15.50
2022-10-06T05:11:00.803Z,11.10
2022-10-06T05:12:00.726Z,10.20
2022-10-06T05:13:00.721Z,11.70
2022-10-06T05:14:00.769Z,8.10
2022-10-06T05:15:00.749Z,7.60
2022-10-06T05:16:00.798Z,10.80
2022-10-06T05:17:00.659Z,8.80
2022-10-06T05:18:00.682Z,15.10
2022-10-06T05:19:00.790Z,10.30
2022-10-06T05:20:00.624Z,12.60
2022-10-06T05:21:05.758Z,12.00
2022-10-06T05:22:00.611Z,13.60
2022-10-06T05:23:00.623Z,15.40
2022-10-06T05:24:00.631Z,7.70
2022-10-06T05:25:00.598Z,13.40
2022-10-06T05:26:00.583Z,16.70
2022-10-06T05:27:01.886Z,9.00
2022-10-06T05:28:00.581Z,10.00
2022-10-06T05:29:00.554Z,11.20
2022-10-06T05:30:00.493Z,11.80
2022-10-06T05:31:00.491Z,11.10
2022-10-06T05:32:00.661Z,13.50
2022-10-06T05:33:00.536Z,9.70
2022-10-06T05:34:00.525Z,10.60
2022-10-06T05:35:00.445Z,14.30
2022-10-06T05:36:00.432Z,11.80
2022-10-06T05:37:00.420Z,7.20
2022-10-06T05:38:00.456Z,11.60
2022-10-06T05:39:00.409Z,13.80
2022-10-06T05:40:00.393Z,20.50
2022-10-06T05:41:00.367Z,10.50
2022-10-06T05:42:00.427Z,10.30
2022-10-06T05:43:00.317Z,10.50
2022-10-06T05:44:00.363Z,9.10
2022-10-06T05:45:00.320Z,14.00
2022-10-06T05:46:02.141Z,11.00
2022-10-06T05:47:00.307Z,16.50
2022-10-06T05:48:00.262Z,6.50
2022-10-06T05:49:00.297Z,14.40
2022-10-06T05:50:00.242Z,9.40
2022-10-06T05:51:00.225Z,12.10
2022-10-06T05:52:00.241Z,13.90
2022-10-06T05:53:00.197Z,19.10
2022-10-06T05:54:00.195Z,9.90
2022-10-06T05:55:00.186Z,9.10
2022-10-06T05:56:00.152Z,10.30
2022-10-06T05:57:00.338Z,16.20
2022-10-06T05:58:00.113Z,11.20
2022-10-06T05:59:00.137Z,11.90
2022-10-06T06:00:00.098Z,15.50
2022-10-06T06:01:00.112Z,10.80
2022-10-06T06:02:00.201Z,11.20
2022-10-06T06:03:00.141Z,11.00
2022-10-06T06:04:00.042Z,16.20
2022-10-06T06:05:00.044Z,12.60
2022-10-06T06:06:00.043Z,13.70
2022-10-06T06:07:00.119Z,10.10
2022-10-06T06:08:00.003Z,11.40
2022-10-06T06:09:00.019Z,5.40
2022-10-06T06:09:59.950Z,14.80
2022-10-06T06:10:59.978Z,6.90
2022-10-06T06:12:00.031Z,12.30
2022-10-06T06:12:59.981Z,13.10
2022-10-06T06:13:59.944Z,13.80
2022-10-06T06:14:59.892Z,8.20
2022-10-06T06:15:59.883Z,8.50
2022-10-06T06:16:59.923Z,13.70
2022-10-06T06:17:59.863Z,16.40
2022-10-06T06:18:59.977Z,8.40
2022-10-06T06:19:59.882Z,9.20
2022-10-06T06:20:59.842Z,9.20
2022-10-06T06:21:59.864Z,16.50
2022-10-06T06:22:59.841Z,10.70
2022-10-06T06:23:59.865Z,9.40
2022-10-06T06:24:59.762Z,20.30
2022-10-06T06:26:02.278Z,13.00
2022-10-06T06:26:59.729Z,9.70
2022-10-06T06:27:59.800Z,11.40
2022-10-06T06:28:59.797Z,9.50
2022-10-06T06:29:59.702Z,11.60
2022-10-06T06:30:59.728Z,16.10
2022-10-06T06:31:59.716Z,8.90
2022-10-06T06:32:59.656Z,12.20
2022-10-06T06:33:59.659Z,11.80
2022-10-06T06:34:59.631Z,12.40
2022-10-06T06:35:59.631Z,16.40
2022-10-06T06:37:05.365Z,21.50
2022-10-06T06:37:59.658Z,10.50
2022-10-06T06:38:59.630Z,13.40
2022-10-06T06:39:59.689Z,13.10
2022-10-06T06:40:59.550Z,14.10
2022-10-06T06:41:59.554Z,12.80
2022-10-06T06:42:59.573Z,11.20
2022-10-06T06:43:59.568Z,12.40
2022-10-06T06:44:59.512Z,12.30
2022-10-06T06:45:59.534Z,14.10
2022-10-06T06:46:59.491Z,12.00
2022-10-06T06:47:59.459Z,16.30
2022-10-06T06:48:59.462Z,12.90
2022-10-06T06:49:59.434Z,9.90
2022-10-06T06:50:59.436Z,13.10
2022-10-06T06:51:59.433Z,14.70
2022-10-06T06:52:59.397Z,13.80
2022-10-06T06:53:59.417Z,8.40
2022-10-06T06:54:59.373Z,11.60
2022-10-06T06:55:59.370Z,11.40
2022-10-06T06:56:59.344Z,13.10
2022-10-06T06:57:59.353Z,10.00
2022-10-06T06:58:59.568Z,11.50
2022-10-06T06:59:59.359Z,12.80
2022-10-06T07:00:59.339Z,10.50
2022-10-06T07:01:59.305Z,10.70
2022-10-06T07:02:59.307Z,14.40
2022-10-06T07:03:59.442Z,13.60
2022-10-06T07:04:59.242Z,9.00
2022-10-06T07:05:59.247Z,8.60
2022-10-06T07:06:59.229Z,15.00
2022-10-06T07:07:59.326Z,12.80
2022-10-06T07:08:59.316Z,13.10
2022-10-06T07:09:59.190Z,13.30
2022-10-06T07:10:59.181Z,14.20
2022-10-06T07:11:59.178Z,15.50
2022-10-06T07:12:59.218Z,11.20
2022-10-06T07:13:59.127Z,14.00
2022-10-06T07:14:59.101Z,9.60
2022-10-06T07:15:59.146Z,13.70
2022-10-06T07:16:59.116Z,10.70
2022-10-06T07:21:57.786Z,10.10
2022-10-06T07:23:19.752Z,11.80
2022-10-06T07:23:58.692Z,15.10
2022-10-06T07:25:13.968Z,15.90
2022-10-06T07:25:58.663Z,14.80
2022-10-06T07:26:58.680Z,16.20
2022-10-06T07:27:58.708Z,11.10
2022-10-06T07:28:59.705Z,16.90
2022-10-06T07:29:57.612Z,12.60
2022-10-06T07:30:58.684Z,13.80
2022-10-06T07:31:58.591Z,16.00
2022-10-06T07:32:58.556Z,14.00
2022-10-06T07:33:58.568Z,11.80
2022-10-06T07:34:58.541Z,9.20
2022-10-06T07:35:58.529Z,7.80
2022-10-06T07:37:02.702Z,10.60
2022-10-06T07:37:58.478Z,14.40
2022-10-06T07:38:58.528Z,12.80
2022-10-06T07:39:58.480Z,14.30
2022-10-06T07:41:58.490Z,11.30
2022-10-06T07:42:58.454Z,12.30
2022-10-06T07:43:58.399Z,14.20
2022-10-06T07:44:58.481Z,11.60
2022-10-06T07:45:58.423Z,11.30
2022-10-06T07:46:58.413Z,11.70
2022-10-06T07:47:58.353Z,14.70
2022-10-06T07:48:58.355Z,12.10
2022-10-06T07:49:58.346Z,18.40
2022-10-06T07:50:58.302Z,8.80
2022-10-06T07:51:58.339Z,14.20
2022-10-06T07:52:58.339Z,12.80
2022-10-06T07:53:58.296Z,15.10
2022-10-06T07:54:58.263Z,14.60
2022-10-06T07:55:58.250Z,12.90
2022-10-06T07:56:58.221Z,14.30
2022-10-06T07:57:58.310Z,18.40
2022-10-06T07:58:58.196Z,15.30
2022-10-06T08:00:02.909Z,11.20
2022-10-06T08:00:58.168Z,9.40
2022-10-06T08:01:58.225Z,12.90
2022-10-06T08:02:58.210Z,15.40
2022-10-06T08:03:58.138Z,14.40
2022-10-06T08:04:58.116Z,12.40
2022-10-06T08:05:58.121Z,15.30
2022-10-06T08:06:58.136Z,12.60
2022-10-06T08:07:58.078Z,14.70
2022-10-06T08:08:58.070Z,11.00
2022-10-06T08:09:58.054Z,10.10
2022-10-06T08:11:00.345Z,11.00
2022-10-06T08:11:58.058Z,13.40
2022-10-06T08:12:58.043Z,12.20
2022-10-06T08:13:57.990Z,11.10
2022-10-06T08:15:00.704Z,10.90
2022-10-06T08:15:58.025Z,10.10
2022-10-06T08:16:57.951Z,16.10
2022-10-06T08:17:58.074Z,11.20
2022-10-06T08:18:57.967Z,15.90
2022-10-06T08:19:57.997Z,13.40
2022-10-06T08:20:57.904Z,16.10
2022-10-06T08:22:02.339Z,15.90
2022-10-06T08:22:57.885Z,10.30
2022-10-06T08:23:57.871Z,11.90
2022-10-06T08:25:05.801Z,11.80
2022-10-06T08:25:57.897Z,9.50
2022-10-06T08:26:57.908Z,15.10
2022-10-06T08:27:57.857Z,16.10
2022-10-06T08:28:57.804Z,16.70
2022-10-06T08:29:57.845Z,15.90
2022-10-06T08:30:57.885Z,14.60
2022-10-06T08:31:57.814Z,9.70
2022-10-06T08:32:57.783Z,15.30
2022-10-06T08:33:57.729Z,16.40
2022-10-06T08:34:58.239Z,12.50
2022-10-06T08:35:57.710Z,16.50
2022-10-06T08:37:18.788Z,12.40
2022-10-06T08:37:57.719Z,15.20
2022-10-06T08:38:57.723Z,20.30
2022-10-06T08:39:57.669Z,9.60
2022-10-06T08:40:57.682Z,19.20
2022-10-06T08:41:57.656Z,13.30
2022-10-06T08:42:57.793Z,11.60
2022-10-06T08:43:57.639Z,12.30
2022-10-06T08:44:57.828Z,11.10
2022-10-06T08:45:57.828Z,12.50
2022-10-06T08:46:57.704Z,15.10
2022-10-06T08:47:57.542Z,14.90
2022-10-06T08:48:57.530Z,10.90
2022-10-06T08:49:58.083Z,10.90
2022-10-06T08:50:59.214Z,11.30
2022-10-06T08:51:57.542Z,10.20
2022-10-06T08:52:57.540Z,16.20
2022-10-06T08:53:57.471Z,15.20
2022-10-06T08:54:58.325Z,15.60
2022-10-06T08:55:57.463Z,18.70
2022-10-06T08:56:57.494Z,11.30
2022-10-06T08:57:57.465Z,16.70
2022-10-06T08:58:57.391Z,19.00
2022-10-06T08:59:57.848Z,15.90
2022-10-06T09:00:57.429Z,10.40
2022-10-06T09:01:57.436Z,16.00
2022-10-06T09:02:57.355Z,18.40
2022-10-06T09:03:57.362Z,13.30
2022-10-06T09:04:57.338Z,16.70
2022-10-06T09:05:57.329Z,13.30
2022-10-06T09:06:57.336Z,9.30
2022-10-06T09:07:57.311Z,14.30
2022-10-06T09:08:57.278Z,14.70
2022-10-06T09:09:57.695Z,16.60
2022-10-06T09:10:57.266Z,15.60
2022-10-06T09:11:57.276Z,12.10
2022-10-06T09:12:57.231Z,19.00
2022-10-06T09:13:57.225Z,12.40
2022-10-06T09:14:57.197Z,10.90
2022-10-06T09:15:57.224Z,11.90
2022-10-06T09:16:57.182Z,15.10
2022-10-06T09:17:57.137Z,14.00
2022-10-06T09:19:08.363Z,19.60
2022-10-06T09:19:57.523Z,12.50
2022-10-06T09:20:57.139Z,14.00
2022-10-06T09:21:57.144Z,13.70
2022-10-06T09:22:57.137Z,10.70
2022-10-06T09:23:57.103Z,12.00
2022-10-06T09:24:57.102Z,12.60
2022-10-06T09:25:57.227Z,14.50
2022-10-06T09:26:57.030Z,10.40
2022-10-06T09:27:57.039Z,8.70
2022-10-06T09:29:01.134Z,10.50
2022-10-06T09:29:57.330Z,15.80
2022-10-06T09:30:57.006Z,11.10
2022-10-06T09:31:57.024Z,9.90
2022-10-06T09:32:57.018Z,10.10
2022-10-06T09:33:57.003Z,15.00
2022-10-06T09:34:56.911Z,12.40
2022-10-06T09:35:56.903Z,12.70
2022-10-06T09:37:01.003Z,14.00
2022-10-06T09:37:56.989Z,12.60
2022-10-06T09:38:56.899Z,13.90
2022-10-06T09:39:57.147Z,12.00
2022-10-06T09:40:56.923Z,10.70
2022-10-06T09:41:56.819Z,7.80
2022-10-06T09:42:56.825Z,10.90
2022-10-06T09:43:56.789Z,8.30
2022-10-06T09:44:56.774Z,11.40
2022-10-06T09:45:56.837Z,9.60
2022-10-06T09:46:56.783Z,10.80
2022-10-06T09:47:56.775Z,12.40
2022-10-06T09:48:56.747Z,11.30
2022-10-06T09:49:55.993Z,10.90
2022-10-06T09:50:56.694Z,13.50
2022-10-06T09:51:56.698Z,11.50
2022-10-06T09:52:56.709Z,15.00
2022-10-06T09:53:56.684Z,8.50
2022-10-06T09:54:56.663Z,9.80
2022-10-06T09:55:56.616Z,12.00
2022-10-06T09:56:56.615Z,10.50
2022-10-06T09:57:56.709Z,12.90
2022-10-06T09:58:56.600Z,9.60
2022-10-06T09:59:56.991Z,7.20
2022-10-06T10:00:56.694Z,5.70
2022-10-06T10:01:56.757Z,6.50
2022-10-06T10:02:56.688Z,7.70
2022-10-06T10:04:18.690Z,9.80
2022-10-06T10:04:56.547Z,11.20
2022-10-06T10:05:56.512Z,11.90
2022-10-06T10:06:56.461Z,12.50
2022-10-06T10:07:56.448Z,11.30
2022-10-06T10:08:56.437Z,10.40
2022-10-06T10:09:56.832Z,7.90
2022-10-06T10:10:56.419Z,12.60
2022-10-06T10:11:56.395Z,7.60
2022-10-06T10:12:56.455Z,5.60
2022-10-06T10:13:56.398Z,13.50
2022-10-06T10:14:56.372Z,10.50
2022-10-06T10:15:56.431Z,13.10
2022-10-06T10:16:56.339Z,5.00
2022-10-06T10:17:56.400Z,9.00
2022-10-06T10:18:56.338Z,8.90
2022-10-06T10:19:56.628Z,10.90
2022-10-06T10:20:56.269Z,8.30
2022-10-06T10:21:56.249Z,9.90
2022-10-06T10:22:56.255Z,11.70
2022-10-06T10:23:56.230Z,10.00
2022-10-06T10:24:56.232Z,9.80
2022-10-06T10:25:56.209Z,11.40
2022-10-06T10:26:58.299Z,7.60
2022-10-06T10:27:56.177Z,11.90
2022-10-06T10:28:56.200Z,8.20
2022-10-06T10:29:56.369Z,11.60
2022-10-06T10:30:56.149Z,8.80
2022-10-06T10:31:56.142Z,9.10
2022-10-06T10:32:56.114Z,8.10
2022-10-06T10:34:11.772Z,12.80
2022-10-06T10:34:56.414Z,9.60
2022-10-06T10:35:56.053Z,7.70
2022-10-06T10:36:56.036Z,7.80
2022-10-06T10:37:56.035Z,7.70
2022-10-06T10:38:56.034Z,12.50
2022-10-06T10:39:56.031Z,10.20
2022-10-06T10:40:56.024Z,12.70
2022-10-06T10:41:56.051Z,10.60
2022-10-06T10:42:55.968Z,11.50
2022-10-06T10:43:57.792Z,10.90
2022-10-06T10:44:56.218Z,10.40
2022-10-06T10:45:55.919Z,10.60
2022-10-06T10:46:55.954Z,5.80
2022-10-06T10:47:55.952Z,8.10
2022-10-06T10:48:55.887Z,7.90
2022-10-06T10:49:55.857Z,10.50
2022-10-06T10:50:55.870Z,11.60
2022-10-06T10:51:55.882Z,10.40
2022-10-06T10:52:55.836Z,5.40
2022-10-06T10:53:55.832Z,8.90
2022-10-06T10:54:56.153Z,12.40
2022-10-06T10:55:55.797Z,8.80
2022-10-06T10:56:55.852Z,11.20
2022-10-06T10:57:55.785Z,3.80
2022-10-06T10:58:55.747Z,7.00
2022-10-06T10:59:55.728Z,8.60
2022-10-06T11:00:55.740Z,10.90
2022-10-06T11:01:55.796Z,7.00
2022-10-06T11:02:55.722Z,8.80
2022-10-06T11:03:55.685Z,8.60
2022-10-06T11:04:56.052Z,6.00
2022-10-06T11:05:55.723Z,6.60
2022-10-06T11:06:55.637Z,8.50
2022-10-06T11:07:55.656Z,10.50
2022-10-06T11:08:55.633Z,7.20
2022-10-06T11:09:55.623Z,7.70
2022-10-06T11:10:55.587Z,8.70
2022-10-06T11:11:55.601Z,11.10
2022-10-06T11:12:55.567Z,7.50
2022-10-06T11:13:55.558Z,9.50
2022-10-06T11:14:55.897Z,7.10
2022-10-06T11:15:55.556Z,5.50
2022-10-06T11:16:55.506Z,7.50
2022-10-06T11:17:55.537Z,7.50
2022-10-06T11:18:55.525Z,8.40
2022-10-06T11:19:55.568Z,8.90
2022-10-06T11:20:55.444Z,9.40
2022-10-06T11:21:55.498Z,10.20
2022-10-06T11:22:55.869Z,7.30
2022-10-06T11:23:55.428Z,6.80
2022-10-06T11:24:55.558Z,10.40
2022-10-06T11:25:55.369Z,6.20
2022-10-06T11:26:55.367Z,7.60
2022-10-06T11:27:55.590Z,8.70
2022-10-06T11:28:55.417Z,12.50
2022-10-06T11:29:55.585Z,8.90
2022-10-06T11:30:55.295Z,9.90
2022-10-06T11:31:55.353Z,7.70
2022-10-06T11:32:55.393Z,8.40
2022-10-06T11:33:55.263Z,7.70
2022-10-06T11:34:55.286Z,10.50
2022-10-06T11:35:55.243Z,9.10
2022-10-06T11:36:55.238Z,6.60
2022-10-06T11:37:55.213Z,13.00
2022-10-06T11:38:54.202Z,8.20
2022-10-06T11:39:55.266Z,10.50
2022-10-06T11:40:55.163Z,12.20
2022-10-06T11:41:55.218Z,6.60
2022-10-06T11:42:55.174Z,10.90
2022-10-06T11:43:55.148Z,12.10
2022-10-06T11:44:55.150Z,8.10
2022-10-06T11:45:55.255Z,11.70
2022-10-06T11:46:55.087Z,10.90
2022-10-06T11:47:55.076Z,8.70
2022-10-06T11:48:55.091Z,9.10
2022-10-06T11:49:55.044Z,9.80
2022-10-06T11:50:55.041Z,8.70
2022-10-06T11:51:59.110Z,11.90
2022-10-06T11:52:55.038Z,15.00
2022-10-06T11:53:55.004Z,9.70
2022-10-06T11:54:54.972Z,8.00
2022-10-06T11:55:54.976Z,4.40
2022-10-06T11:56:54.955Z,6.90
2022-10-06T11:57:54.961Z,7.20
2022-10-06T11:58:54.935Z,8.40
2022-10-06T11:59:54.927Z,11.50
2022-10-06T12:00:54.896Z,9.00
2022-10-06T12:01:55.155Z,8.70
2022-10-06T12:02:54.965Z,5.20
2022-10-06T12:03:54.879Z,8.20
2022-10-06T12:04:54.867Z,7.20
2022-10-06T12:05:56.573Z,9.00
2022-10-06T12:06:54.838Z,7.20
2022-10-06T12:07:54.818Z,7.70
2022-10-06T12:08:54.794Z,8.70
2022-10-06T12:09:54.782Z,7.90
2022-10-06T12:10:54.784Z,9.10
2022-10-06T12:11:54.775Z,10.50
2022-10-06T12:13:06.576Z,11.10
2022-10-06T12:15:12.137Z,9.30
2022-10-06T12:17:10.602Z,9.60
2022-10-06T12:17:54.704Z,7.70
2022-10-06T12:18:54.669Z,12.50
2022-10-06T12:19:54.679Z,9.00
2022-10-06T12:21:15.629Z,7.50
2022-10-06T12:21:54.643Z,9.40
2022-10-06T12:22:54.606Z,8.80
2022-10-06T12:23:54.585Z,6.40
2022-10-06T12:24:54.567Z,11.10
2022-10-06T12:25:54.629Z,9.90
2022-10-06T12:26:54.549Z,4.90
2022-10-06T12:27:54.523Z,7.30
2022-10-06T12:28:54.543Z,4.90
2022-10-06T12:29:54.571Z,9.20
2022-10-06T12:30:54.589Z,4.00
2022-10-06T12:32:15.490Z,4.70
2022-10-06T12:32:54.462Z,7.70
2022-10-06T12:33:54.482Z,8.40
2022-10-06T12:34:54.428Z,11.10
2022-10-06T12:35:54.437Z,7.10
2022-10-06T12:36:54.398Z,9.00
2022-10-06T12:37:55.019Z,11.10
2022-10-06T12:38:54.386Z,9.80
2022-10-06T12:39:54.374Z,6.90
2022-10-06T12:40:54.404Z,10.30
2022-10-06T12:41:54.381Z,9.40
2022-10-06T12:42:54.328Z,5.50
2022-10-06T12:43:54.418Z,6.40
2022-10-06T12:44:57.322Z,7.00
2022-10-06T12:45:54.379Z,5.20
2022-10-06T12:46:54.338Z,7.70
2022-10-06T12:47:54.277Z,8.00
2022-10-06T12:48:54.249Z,6.40
2022-10-06T12:49:54.231Z,9.80
2022-10-06T12:50:54.302Z,8.20
2022-10-06T12:51:57.786Z,9.10
2022-10-06T12:52:54.203Z,5.20
2022-10-06T12:53:54.188Z,6.40
2022-10-06T12:54:54.206Z,9.00
2022-10-06T12:55:54.177Z,10.10
2022-10-06T12:56:56.621Z,10.40
2022-10-06T12:58:15.306Z,8.30
2022-10-06T12:58:54.188Z,7.20
2022-10-06T12:59:54.117Z,6.40
2022-10-06T13:00:54.082Z,6.80
2022-10-06T13:01:54.101Z,5.90
2022-10-06T13:02:54.097Z,11.10
2022-10-06T13:03:54.045Z,7.50
2022-10-06T13:04:54.060Z,7.70
2022-10-06T13:05:54.004Z,9.20
2022-10-06T13:06:54.013Z,8.60
2022-10-06T13:07:53.989Z,5.70
2022-10-06T13:09:14.982Z,8.20
2022-10-06T13:09:53.966Z,8.30
2022-10-06T13:10:56.050Z,10.10
2022-10-06T13:11:53.993Z,7.20